createdAt,value
2023-05-06T00:01:36.589Z,10.02
2023-05-06T00:04:03.405Z,10.07
2023-05-06T00:06:30.090Z,9.95
2023-05-06T00:08:56.532Z,9.97
2023-05-06T00:11:22.992Z,9.92
2023-05-06T00:13:49.471Z,9.89
2023-05-06T00:16:16.067Z,9.89
2023-05-06T00:18:42.701Z,9.91
2023-05-06T00:21:09.303Z,9.95
2023-05-06T00:23:35.790Z,9.96
2023-05-06T00:26:02.439Z,10.04
2023-05-06T00:28:29.041Z,10.08
2023-05-06T00:30:55.493Z,10.07
2023-05-06T00:33:21.981Z,10.14
2023-05-06T00:35:48.760Z,10.18
2023-05-06T00:38:15.553Z,10.19
2023-05-06T00:40:42.104Z,10.19
2023-05-06T00:43:08.925Z,10.20
2023-05-06T00:45:35.526Z,10.16
2023-05-06T00:48:04.259Z,10.16
2023-05-06T00:50:32.600Z,10.13
2023-05-06T00:52:59.988Z,10.10
2023-05-06T00:55:27.411Z,10.11
2023-05-06T00:57:54.520Z,10.18
2023-05-06T01:00:21.619Z,10.21
2023-05-06T01:02:48.887Z,10.20
2023-05-06T01:05:22.461Z,10.23
2023-05-06T01:07:55.539Z,10.22
2023-05-06T01:10:36.503Z,10.22
2023-05-06T01:13:10.028Z,10.24
2023-05-06T01:15:47.950Z,10.26
2023-05-06T01:18:20.919Z,10.23
2023-05-06T01:20:52.495Z,10.21
2023-05-06T01:23:19.801Z,10.16
2023-05-06T01:25:46.371Z,10.13
2023-05-06T01:28:13.651Z,10.09
2023-05-06T01:30:57.818Z,10.04
2023-05-06T01:34:08.940Z,9.98
2023-05-06T01:37:01.208Z,9.91
2023-05-06T01:39:30.817Z,9.82
2023-05-06T01:42:00.759Z,9.77
2023-05-06T01:44:31.896Z,9.73
2023-05-06T01:46:58.369Z,9.66
2023-05-06T01:49:26.246Z,9.62
2023-05-06T01:51:53.646Z,9.60
2023-05-06T01:54:20.327Z,9.54
2023-05-06T01:56:46.914Z,9.50
2023-05-06T01:59:13.421Z,9.44
2023-05-06T02:01:39.935Z,9.38
2023-05-06T02:04:06.637Z,9.35
2023-05-06T02:06:33.182Z,9.33
2023-05-06T02:08:59.728Z,9.30
2023-05-06T02:11:26.278Z,9.32
2023-05-06T02:13:52.816Z,9.29
2023-05-06T02:16:19.292Z,9.28
2023-05-06T02:18:45.898Z,9.24
2023-05-06T02:21:12.506Z,9.18
2023-05-06T02:23:39.008Z,9.09
2023-05-06T02:26:05.653Z,9.05
2023-05-06T02:28:32.123Z,8.99
2023-05-06T02:30:59.119Z,8.95
2023-05-06T02:33:26.281Z,8.94
2023-05-06T02:35:52.746Z,9.00
2023-05-06T02:38:19.805Z,9.01
2023-05-06T02:40:46.299Z,8.96
2023-05-06T02:43:12.949Z,8.94
2023-05-06T02:45:39.539Z,8.85
2023-05-06T02:48:06.564Z,8.81
2023-05-06T02:50:35.373Z,8.74
2023-05-06T02:53:01.821Z,8.70
2023-05-06T02:55:28.334Z,8.71
2023-05-06T02:57:54.765Z,8.71
2023-05-06T03:00:21.254Z,8.73
2023-05-06T03:02:47.762Z,8.69
2023-05-06T03:05:14.290Z,8.63
2023-05-06T03:07:41.123Z,8.60
2023-05-06T03:10:08.093Z,8.58
2023-05-06T03:12:34.856Z,8.54
2023-05-06T03:15:01.425Z,8.50
2023-05-06T03:17:27.982Z,8.50
2023-05-06T03:19:54.537Z,8.46
2023-05-06T03:22:20.987Z,8.48
2023-05-06T03:24:47.457Z,8.48
2023-05-06T03:27:14.074Z,8.47
2023-05-06T03:29:40.551Z,8.47
2023-05-06T03:32:07.184Z,8.42
2023-05-06T03:34:33.654Z,8.36
2023-05-06T03:37:00.548Z,8.33
2023-05-06T03:39:27.195Z,8.32
2023-05-06T03:41:53.826Z,8.35
2023-05-06T03:44:20.310Z,8.34
2023-05-06T03:46:46.817Z,8.29
2023-05-06T03:49:13.382Z,8.26
2023-05-06T03:51:40.169Z,8.26
2023-05-06T03:54:06.719Z,8.22
2023-05-06T03:56:33.162Z,8.25
2023-05-06T03:58:59.685Z,8.23
2023-05-06T04:01:26.212Z,8.25
2023-05-06T04:03:54.490Z,8.26
2023-05-06T04:06:21.152Z,8.30
2023-05-06T04:08:47.767Z,8.29
2023-05-06T04:11:14.497Z,8.26
2023-05-06T04:13:40.965Z,8.26
2023-05-06T04:16:07.767Z,8.26
2023-05-06T04:18:34.351Z,8.28
2023-05-06T04:21:00.960Z,8.37
2023-05-06T04:23:27.637Z,8.41
2023-05-06T04:25:54.260Z,8.47
2023-05-06T04:28:20.756Z,8.49
2023-05-06T04:30:47.288Z,8.49
2023-05-06T04:33:13.857Z,8.45
2023-05-06T04:35:41.078Z,8.52
2023-05-06T04:38:07.641Z,8.53
2023-05-06T04:40:36.761Z,8.54
2023-05-06T04:43:03.202Z,8.56
2023-05-06T04:45:29.942Z,8.58
2023-05-06T04:47:56.673Z,8.58
2023-05-06T04:50:23.221Z,8.64
2023-05-06T04:52:49.820Z,8.67
2023-05-06T04:55:16.305Z,8.73
2023-05-06T04:57:42.771Z,8.77
2023-05-06T05:00:10.842Z,8.82
2023-05-06T05:02:37.820Z,8.87
2023-05-06T05:05:04.761Z,8.96
2023-05-06T05:07:31.219Z,9.09
2023-05-06T05:09:57.687Z,9.18
2023-05-06T05:12:24.255Z,9.27
2023-05-06T05:14:51.300Z,9.37
2023-05-06T05:17:17.870Z,9.52
2023-05-06T05:19:44.413Z,9.65
2023-05-06T05:22:11.208Z,9.82
2023-05-06T05:24:37.719Z,9.97
2023-05-06T05:27:04.236Z,10.09
2023-05-06T05:29:30.856Z,10.20
2023-05-06T05:31:57.379Z,10.38
2023-05-06T05:34:23.922Z,10.55
2023-05-06T05:36:50.469Z,10.68
2023-05-06T05:39:16.984Z,10.74
2023-05-06T05:41:43.685Z,10.84
2023-05-06T05:44:10.556Z,10.94
2023-05-06T05:46:37.163Z,11.02
2023-05-06T05:49:03.696Z,11.12
2023-05-06T05:51:31.127Z,11.19
2023-05-06T05:53:57.704Z,11.22
2023-05-06T05:56:24.262Z,11.28
2023-05-06T05:58:50.953Z,11.34
2023-05-06T06:01:17.757Z,11.36
2023-05-06T06:03:44.586Z,11.42
2023-05-06T06:06:12.027Z,11.44
2023-05-06T06:08:50.838Z,11.55
2023-05-06T06:11:17.368Z,11.61
2023-05-06T06:13:43.840Z,11.66
2023-05-06T06:16:11.090Z,11.67
2023-05-06T06:18:37.721Z,11.77
2023-05-06T06:21:04.353Z,11.81
2023-05-06T06:23:30.952Z,11.93
2023-05-06T06:25:57.477Z,12.03
2023-05-06T06:28:24.000Z,12.10
2023-05-06T06:30:50.786Z,12.17
2023-05-06T06:33:17.352Z,12.25
2023-05-06T06:35:43.874Z,12.24
2023-05-06T06:38:10.462Z,12.31
2023-05-06T06:40:36.940Z,12.30
2023-05-06T06:43:03.544Z,12.39
2023-05-06T06:45:30.152Z,12.49
2023-05-06T06:47:56.740Z,12.54
2023-05-06T06:50:23.373Z,12.62
2023-05-06T06:52:49.939Z,12.75
2023-05-06T06:55:16.468Z,12.79
2023-05-06T06:57:43.007Z,12.85
2023-05-06T07:00:10.278Z,12.90
2023-05-06T07:02:36.812Z,12.99
2023-05-06T07:05:04.135Z,13.02
2023-05-06T07:07:30.797Z,13.07
2023-05-06T07:09:58.018Z,13.15
2023-05-06T07:12:26.677Z,13.32
2023-05-06T07:14:53.175Z,13.57
2023-05-06T07:17:19.870Z,13.78
2023-05-06T07:19:46.435Z,14.02
2023-05-06T07:22:13.125Z,14.15
2023-05-06T07:24:39.675Z,14.40
2023-05-06T07:27:06.447Z,14.56
2023-05-06T07:29:34.822Z,14.60
2023-05-06T07:32:01.364Z,14.43
2023-05-06T07:34:27.868Z,14.48
2023-05-06T07:36:54.426Z,14.50
2023-05-06T07:39:21.136Z,14.41
2023-05-06T07:41:47.829Z,14.68
2023-05-06T07:44:14.263Z,14.80
2023-05-06T07:46:40.951Z,14.92
2023-05-06T07:49:07.679Z,15.09
2023-05-06T07:51:34.232Z,15.13
2023-05-06T07:54:00.748Z,15.39
2023-05-06T07:56:27.249Z,15.51
2023-05-06T07:58:54.083Z,16.44
2023-05-06T08:01:20.908Z,16.76
2023-05-06T08:03:47.512Z,16.79
2023-05-06T08:06:14.210Z,16.81
2023-05-06T08:08:40.712Z,16.81
2023-05-06T08:11:07.175Z,16.96
2023-05-06T08:13:33.673Z,16.97
2023-05-06T08:16:02.358Z,16.90
2023-05-06T08:18:29.215Z,17.20
2023-05-06T08:20:55.976Z,17.50
2023-05-06T08:23:22.596Z,18.43
2023-05-06T08:25:49.258Z,18.91
2023-05-06T08:28:15.949Z,18.92
2023-05-06T08:30:42.484Z,19.14
2023-05-06T08:33:09.140Z,20.23
2023-05-06T08:35:35.751Z,20.14
2023-05-06T08:38:02.274Z,20.93
2023-05-06T08:40:32.665Z,20.39
2023-05-06T08:42:59.877Z,20.54
2023-05-06T08:45:28.769Z,20.10
2023-05-06T08:47:56.224Z,19.97
2023-05-06T08:50:23.566Z,20.94
2023-05-06T08:52:50.876Z,21.31
2023-05-06T08:55:19.337Z,21.02
2023-05-06T08:57:46.457Z,20.64
2023-05-06T09:00:13.575Z,20.41
2023-05-06T09:02:42.909Z,20.15
2023-05-06T09:05:11.378Z,20.23
2023-05-06T09:07:38.178Z,20.40
2023-05-06T09:10:13.215Z,21.23
2023-05-06T09:12:40.085Z,21.30
2023-05-06T09:15:07.278Z,21.06
2023-05-06T09:17:33.901Z,21.29
2023-05-06T09:20:00.542Z,21.45
2023-05-06T09:22:28.938Z,21.58
2023-05-06T09:24:59.309Z,22.19
2023-05-06T09:27:28.295Z,21.82
2023-05-06T09:30:02.055Z,21.84
2023-05-06T09:32:29.482Z,21.85
2023-05-06T09:34:56.465Z,21.85
2023-05-06T09:37:23.381Z,21.61
2023-05-06T09:39:54.591Z,21.61
2023-05-06T09:42:26.243Z,22.13
2023-05-06T09:45:02.677Z,22.05
2023-05-06T09:47:34.546Z,21.97
2023-05-06T09:50:02.771Z,22.35
2023-05-06T09:52:30.166Z,22.05
2023-05-06T09:54:57.675Z,21.80
2023-05-06T09:57:24.704Z,21.24
2023-05-06T09:59:54.662Z,21.40
2023-05-06T10:02:23.878Z,21.66
2023-05-06T10:04:51.161Z,21.74
2023-05-06T10:07:22.807Z,21.63
2023-05-06T10:09:51.400Z,21.57
2023-05-06T10:12:19.053Z,21.60
2023-05-06T10:14:46.176Z,21.33
2023-05-06T10:17:13.985Z,21.42
2023-05-06T10:19:44.911Z,21.54
2023-05-06T10:22:18.916Z,21.45
2023-05-06T10:25:12.483Z,21.54
2023-05-06T10:27:43.501Z,21.24
2023-05-06T10:30:13.304Z,21.23
2023-05-06T10:32:43.558Z,21.41
2023-05-06T10:35:27.503Z,21.77
2023-05-06T10:37:56.600Z,21.64
2023-05-06T10:40:23.942Z,21.85
2023-05-06T10:42:51.500Z,21.72
2023-05-06T10:45:19.127Z,21.63
2023-05-06T10:47:54.813Z,21.53
2023-05-06T10:50:25.694Z,21.57
2023-05-06T10:52:57.709Z,21.76
2023-05-06T10:55:35.301Z,21.58
2023-05-06T10:58:16.053Z,21.69
2023-05-06T11:00:54.142Z,21.75
2023-05-06T11:03:24.006Z,21.61
2023-05-06T11:05:52.060Z,21.51
2023-05-06T11:08:24.233Z,21.22
2023-05-06T11:10:51.304Z,21.23
2023-05-06T11:13:21.296Z,21.29
2023-05-06T11:15:52.120Z,21.34
2023-05-06T11:18:24.686Z,21.17
2023-05-06T11:20:52.073Z,21.22
2023-05-06T11:23:19.095Z,21.44
2023-05-06T11:25:47.245Z,21.55
2023-05-06T11:28:14.860Z,21.73
2023-05-06T11:30:43.901Z,21.81
2023-05-06T11:33:19.012Z,21.81
2023-05-06T11:35:46.195Z,21.83
2023-05-06T11:38:12.716Z,22.10
2023-05-06T11:40:41.876Z,22.20
2023-05-06T11:43:15.736Z,22.14
2023-05-06T11:45:49.911Z,22.04
2023-05-06T11:48:18.030Z,22.00
2023-05-06T11:50:48.707Z,22.23
2023-05-06T11:53:19.411Z,22.34
2023-05-06T11:55:46.606Z,22.16
2023-05-06T11:58:24.421Z,22.38
2023-05-06T12:00:54.583Z,22.57
2023-05-06T12:03:22.089Z,22.71
2023-05-06T12:05:50.085Z,22.23
2023-05-06T12:08:27.245Z,21.87
2023-05-06T12:10:58.695Z,22.32
2023-05-06T12:13:25.568Z,22.97
2023-05-06T12:15:54.535Z,23.22
2023-05-06T12:18:22.076Z,23.22
2023-05-06T12:20:48.584Z,22.78
2023-05-06T12:23:16.154Z,22.39
2023-05-06T12:25:44.715Z,22.44
2023-05-06T12:28:18.241Z,22.67
2023-05-06T12:30:45.910Z,22.55
2023-05-06T12:33:12.932Z,22.58
2023-05-06T12:35:40.817Z,22.86
2023-05-06T12:38:08.655Z,22.66
2023-05-06T12:40:35.483Z,23.07
2023-05-06T12:43:01.997Z,23.27
2023-05-06T12:45:28.687Z,23.39
2023-05-06T12:48:08.395Z,23.37
2023-05-06T12:50:37.874Z,23.09
2023-05-06T12:53:05.651Z,23.08
2023-05-06T12:55:33.093Z,23.10
2023-05-06T12:58:00.119Z,22.96
2023-05-06T13:00:26.699Z,23.00
2023-05-06T13:02:53.291Z,23.16
2023-05-06T13:05:19.880Z,22.92
2023-05-06T13:07:46.406Z,22.80
2023-05-06T13:10:13.135Z,22.86
2023-05-06T13:12:39.924Z,23.02
2023-05-06T13:15:07.694Z,23.37
2023-05-06T13:17:34.164Z,23.22
2023-05-06T13:20:01.550Z,23.47
2023-05-06T13:22:28.670Z,23.73
2023-05-06T13:24:55.138Z,23.81
2023-05-06T13:27:21.832Z,23.85
2023-05-06T13:29:48.267Z,23.44
2023-05-06T13:32:14.761Z,23.16
2023-05-06T13:34:41.254Z,23.28
2023-05-06T13:37:07.752Z,23.74
2023-05-06T13:39:34.417Z,23.74
2023-05-06T13:42:02.920Z,23.78
2023-05-06T13:44:29.705Z,24.02
2023-05-06T13:46:56.318Z,24.23
2023-05-06T13:49:22.939Z,23.97
2023-05-06T13:51:49.891Z,23.87
2023-05-06T13:54:16.425Z,23.91
2023-05-06T13:56:43.055Z,24.01
2023-05-06T13:59:11.879Z,24.03
2023-05-06T14:01:38.810Z,23.86
2023-05-06T14:04:05.591Z,23.83
2023-05-06T14:06:32.170Z,23.82
2023-05-06T14:08:58.648Z,23.91
2023-05-06T14:11:25.220Z,24.00
2023-05-06T14:13:51.704Z,24.13
2023-05-06T14:16:18.245Z,24.29
2023-05-06T14:18:44.813Z,24.23
2023-05-06T14:21:11.284Z,24.39
2023-05-06T14:23:37.946Z,24.03
2023-05-06T14:26:04.512Z,23.84
2023-05-06T14:28:30.965Z,23.64
2023-05-06T14:30:58.131Z,23.59
2023-05-06T14:33:24.707Z,23.64
2023-05-06T14:35:52.784Z,23.82
2023-05-06T14:38:19.906Z,23.87
2023-05-06T14:40:46.490Z,23.99
2023-05-06T14:43:13.049Z,24.01
2023-05-06T14:45:39.582Z,24.16
2023-05-06T14:48:06.786Z,24.06
2023-05-06T14:50:33.343Z,24.07
2023-05-06T14:53:00.576Z,23.97
2023-05-06T14:55:28.747Z,23.71
2023-05-06T14:57:55.291Z,23.48
2023-05-06T15:00:21.806Z,23.38
2023-05-06T15:02:48.336Z,23.22
2023-05-06T15:05:15.158Z,23.13
2023-05-06T15:07:42.142Z,23.04
2023-05-06T15:10:09.047Z,22.94
2023-05-06T15:12:36.715Z,22.69
2023-05-06T15:15:05.155Z,22.50
2023-05-06T15:17:32.529Z,22.43
2023-05-06T15:19:59.134Z,22.50
2023-05-06T15:22:25.661Z,22.57
2023-05-06T15:24:52.236Z,22.62
2023-05-06T15:27:18.757Z,22.65
2023-05-06T15:29:45.368Z,22.57
2023-05-06T15:32:11.856Z,22.55
2023-05-06T15:34:38.375Z,22.33
2023-05-06T15:37:05.072Z,22.29
2023-05-06T15:39:37.001Z,22.26
2023-05-06T15:42:04.293Z,22.10
2023-05-06T15:44:32.385Z,22.06
2023-05-06T15:46:59.073Z,21.98
2023-05-06T15:49:51.044Z,22.04
2023-05-06T15:52:12.470Z,22.08
2023-05-06T15:54:39.993Z,22.03
2023-05-06T15:57:07.724Z,21.94
2023-05-06T15:59:34.358Z,21.74
2023-05-06T16:05:57.540Z,21.96
2023-05-06T16:08:24.057Z,21.95
2023-05-06T16:10:51.467Z,21.71
2023-05-06T16:13:20.162Z,21.71
2023-05-06T16:15:47.224Z,21.67
2023-05-06T16:18:13.854Z,21.57
2023-05-06T16:20:40.777Z,21.55
2023-05-06T16:23:07.381Z,21.57
2023-05-06T16:25:34.027Z,21.38
2023-05-06T16:28:00.777Z,21.36
2023-05-06T16:30:27.255Z,21.33
2023-05-06T16:32:53.899Z,21.27
2023-05-06T16:35:20.716Z,21.20
2023-05-06T16:37:47.253Z,21.21
2023-05-06T16:40:14.927Z,21.06
2023-05-06T16:42:41.581Z,21.04
2023-05-06T16:45:08.468Z,21.05
2023-05-06T16:47:35.358Z,20.99
2023-05-06T16:50:02.854Z,20.90
2023-05-06T16:52:30.882Z,20.88
2023-05-06T16:54:57.570Z,20.80
2023-05-06T16:57:23.998Z,20.73
2023-05-06T16:59:50.540Z,20.57
2023-05-06T17:02:17.042Z,20.51
2023-05-06T17:04:43.577Z,20.39
2023-05-06T17:07:11.151Z,20.36
2023-05-06T17:09:38.849Z,20.22
2023-05-06T17:12:07.398Z,20.22
2023-05-06T17:14:35.372Z,20.23
2023-05-06T17:17:04.228Z,20.13
2023-05-06T17:19:30.789Z,20.09
2023-05-06T17:21:57.889Z,19.99
2023-05-06T17:24:26.745Z,19.94
2023-05-06T17:26:53.257Z,19.83
2023-05-06T17:29:22.148Z,19.77
2023-05-06T17:31:49.675Z,19.72
2023-05-06T17:34:16.695Z,19.69
2023-05-06T17:36:43.344Z,19.64
2023-05-06T17:39:09.860Z,19.54
2023-05-06T17:41:36.442Z,19.50
2023-05-06T17:44:03.012Z,19.44
2023-05-06T17:46:29.616Z,19.40
2023-05-06T17:48:56.168Z,19.31
2023-05-06T17:51:22.763Z,19.16
2023-05-06T17:53:49.245Z,18.87
2023-05-06T17:56:16.558Z,18.32
2023-05-06T17:58:43.061Z,17.97
2023-05-06T18:01:09.713Z,17.63
2023-05-06T18:03:36.343Z,17.37
2023-05-06T18:06:03.095Z,17.17
2023-05-06T18:08:29.583Z,16.95
2023-05-06T18:10:56.158Z,16.90
2023-05-06T18:13:23.195Z,16.55
2023-05-06T18:15:49.788Z,16.21
2023-05-06T18:18:16.490Z,16.05
2023-05-06T18:20:42.998Z,15.94
2023-05-06T18:23:09.477Z,16.01
2023-05-06T18:25:35.947Z,15.96
2023-05-06T18:28:04.853Z,15.89
2023-05-06T18:30:31.422Z,15.83
2023-05-06T18:32:58.046Z,15.79
2023-05-06T18:35:24.680Z,15.66
2023-05-06T18:37:51.100Z,15.66
2023-05-06T18:40:17.864Z,15.56
2023-05-06T18:42:44.416Z,15.59
2023-05-06T18:45:12.034Z,15.58
2023-05-06T18:47:40.178Z,15.55
2023-05-06T18:50:08.295Z,15.43
2023-05-06T18:52:37.458Z,15.48
2023-05-06T18:55:05.376Z,15.42
2023-05-06T18:57:32.182Z,15.33
2023-05-06T18:59:58.655Z,15.38
2023-05-06T19:02:25.453Z,15.35
2023-05-06T19:04:52.087Z,15.37
2023-05-06T19:07:18.615Z,15.38
2023-05-06T19:09:45.460Z,15.27
2023-05-06T19:12:11.994Z,15.34
2023-05-06T19:14:38.600Z,15.24
2023-05-06T19:17:05.203Z,15.26
2023-05-06T19:19:31.899Z,15.25
2023-05-06T19:21:59.102Z,15.25
2023-05-06T19:26:52.435Z,15.20
2023-05-06T19:29:19.079Z,15.23
2023-05-06T19:31:45.558Z,15.21
2023-05-06T19:34:12.047Z,15.15
2023-05-06T19:36:38.562Z,15.16
2023-05-06T19:39:05.058Z,15.15
2023-05-06T19:41:31.570Z,15.14
2023-05-06T19:43:58.093Z,15.11
2023-05-06T19:46:24.664Z,15.12
2023-05-06T19:48:51.219Z,15.12
2023-05-06T19:51:17.675Z,15.11
2023-05-06T19:53:44.239Z,15.10
2023-05-06T19:56:12.607Z,15.00
2023-05-06T19:58:40.016Z,14.99
2023-05-06T20:01:06.540Z,14.97
2023-05-06T20:03:33.690Z,14.97
2023-05-06T20:06:00.770Z,14.95
2023-05-06T20:08:27.342Z,14.97
2023-05-06T20:10:54.024Z,14.96
2023-05-06T20:13:20.913Z,14.97
2023-05-06T20:15:48.745Z,14.94
2023-05-06T20:18:15.423Z,14.94
2023-05-06T20:20:43.237Z,14.97
2023-05-06T20:23:09.806Z,14.94
2023-05-06T20:25:37.459Z,14.92
2023-05-06T20:28:06.538Z,14.90
2023-05-06T20:30:33.731Z,14.87
2023-05-06T20:33:00.320Z,14.80
2023-05-06T20:35:27.195Z,14.82
2023-05-06T20:37:54.624Z,14.77
2023-05-06T20:40:21.686Z,14.76
2023-05-06T20:42:48.431Z,14.69
2023-05-06T20:45:15.004Z,14.66
2023-05-06T20:47:41.709Z,14.61
2023-05-06T20:50:08.622Z,14.60
2023-05-06T20:52:35.136Z,14.60
2023-05-06T20:55:02.077Z,14.58
2023-05-06T20:57:28.639Z,14.54
2023-05-06T20:59:56.136Z,14.55
2023-05-06T21:02:22.741Z,14.53
2023-05-06T21:04:49.515Z,14.54
2023-05-06T21:07:16.006Z,14.56
2023-05-06T21:09:42.494Z,14.55
2023-05-06T21:12:09.395Z,14.55
2023-05-06T21:14:35.860Z,14.53
2023-05-06T21:17:02.453Z,14.46
2023-05-06T21:19:28.987Z,14.48
2023-05-06T21:21:56.826Z,14.49
2023-05-06T21:24:23.348Z,14.50
2023-05-06T21:26:51.262Z,14.52
2023-05-06T21:29:17.749Z,14.52
2023-05-06T21:31:44.185Z,14.51
2023-05-06T21:34:10.650Z,14.46
2023-05-06T21:36:37.154Z,14.40
2023-05-06T21:39:08.353Z,14.38
2023-05-06T21:41:36.222Z,14.38
2023-05-06T21:44:07.917Z,14.33
2023-05-06T21:46:35.211Z,14.28
2023-05-06T21:49:02.045Z,14.27
2023-05-06T21:51:32.241Z,14.27
2023-05-06T21:53:58.930Z,14.25
2023-05-06T21:56:25.516Z,14.25
2023-05-06T21:58:53.272Z,14.24
2023-05-06T22:01:19.838Z,14.19
2023-05-06T22:03:48.371Z,14.19
2023-05-06T22:06:15.564Z,14.15
2023-05-06T22:08:42.387Z,14.17
2023-05-06T22:11:09.183Z,14.16
2023-05-06T22:13:36.203Z,14.16
2023-05-06T22:16:03.240Z,14.16
2023-05-06T22:18:30.016Z,14.13
2023-05-06T22:20:57.779Z,14.14
2023-05-06T22:23:25.468Z,14.13
2023-05-06T22:25:52.148Z,14.11
2023-05-06T22:28:19.365Z,14.11
2023-05-06T22:30:46.049Z,14.11
2023-05-06T22:33:12.748Z,14.09
2023-05-06T22:35:39.265Z,14.04
2023-05-06T22:38:05.931Z,14.03
2023-05-06T22:40:32.476Z,14.08
2023-05-06T22:42:59.040Z,14.05
2023-05-06T22:45:26.389Z,14.02
2023-05-06T22:47:52.954Z,14.01
2023-05-06T22:50:19.444Z,14.00
2023-05-06T22:52:46.009Z,13.98
2023-05-06T22:55:12.731Z,13.97
2023-05-06T22:57:39.468Z,13.96
2023-05-06T23:00:08.771Z,13.96
2023-05-06T23:02:35.310Z,13.94
2023-05-06T23:05:01.892Z,13.95
2023-05-06T23:07:28.446Z,13.91
2023-05-06T23:09:55.088Z,13.89
2023-05-06T23:12:21.672Z,13.86
2023-05-06T23:14:48.184Z,13.82
2023-05-06T23:17:14.827Z,13.79
2023-05-06T23:19:41.366Z,13.79
2023-05-06T23:22:07.947Z,13.77
2023-05-06T23:24:34.464Z,13.76
2023-05-06T23:27:01.382Z,13.74
2023-05-06T23:29:27.845Z,13.75
2023-05-06T23:31:57.343Z,13.71
2023-05-06T23:34:23.821Z,13.74
2023-05-06T23:36:50.619Z,13.67
2023-05-06T23:39:17.542Z,13.67
2023-05-06T23:41:44.356Z,13.66
2023-05-06T23:44:10.865Z,13.66
2023-05-06T23:46:37.434Z,13.59
2023-05-06T23:49:05.321Z,13.56
2023-05-06T23:51:32.674Z,13.55
2023-05-06T23:53:59.197Z,13.50
2023-05-06T23:56:25.711Z,13.46
2023-05-06T23:58:52.240Z,13.48
